»·PEaware :: N26504 KWHP-KSBD

N26504 :: KWHP-KSBD

FLIGHT INFORMATION

Flight Status: Arrived
Operator: Privately registered:
United States
More flights under this callsign
Pilot: Ryan B. (29018)
Aircraft: CESSNA 172 SKYHAWK
(C172)
More flights by this aircraft type
Origin: KWHP Whiteman
United States
Destination: KSBD San Bernardino Intl
United States
More flights between these airports :: More routes between these airports
Route: V186 PDZ
File this flight plan on PilotEdge
Remarks:
Altitude:
(Current/Filed)
5,000ft
Speed:
(Current/Filed)
120kts
Departed: 11-Jul-20 10:38 AM
Arrived: 11-Jul-20 11:17 AM
Distance/Time
Traveled:
59nm/0:39
Distance/Time
To Go:
Arrived

Flight Plot

Page will automatically refresh every two minutes.


Map Options




Map Legend


Flown Route
Filed Route
Departure Airport
Arrival Airport
Navaid (VOR, NDB)
Fix

Horizontal Profiles

Position Reports

Time Latitude Longitude Heading Altitude Ground
Speed
11-Jul-20 10:27 34.260587 -118.413405 138 998ft 0kts
11-Jul-20 10:28 34.260587 -118.413405 138 998ft 0kts
11-Jul-20 10:29 34.260587 -118.413405 138 998ft 0kts
11-Jul-20 10:30 34.260587 -118.413405 138 998ft 0kts
11-Jul-20 10:31 34.260587 -118.413405 138 998ft 0kts
11-Jul-20 10:32 34.260587 -118.413405 138 998ft 0kts
11-Jul-20 10:33 34.259495 -118.413007 138 992ft 6kts
11-Jul-20 10:34 34.257815 -118.411199 143 982ft 11kts
11-Jul-20 10:35 34.255608 -118.408916 165 970ft 3kts
11-Jul-20 10:36 34.255287 -118.409092 272 969ft 4kts
11-Jul-20 10:37 34.267462 -118.421533 300 1526ft 72kts
11-Jul-20 10:38 34.269922 -118.450086 272 2323ft 83kts
11-Jul-20 10:39 34.271072 -118.475947 272 3186ft 80kts
11-Jul-20 10:40 34.272437 -118.505176 272 3959ft 91kts
11-Jul-20 10:41 34.289755 -118.524096 301 4809ft 83kts
11-Jul-20 10:42 34.272192 -118.535003 147 4957ft 117kts
11-Jul-20 10:43 34.244570 -118.511027 143 4954ft 124kts
11-Jul-20 10:44 34.219924 -118.482765 112 4955ft 125kts
11-Jul-20 10:45 34.207855 -118.443280 103 4954ft 125kts
11-Jul-20 10:46 34.196825 -118.403314 111 4954ft 125kts
11-Jul-20 10:47 34.183980 -118.364157 111 4954ft 125kts
11-Jul-20 10:48 34.171227 -118.325382 111 4954ft 125kts
11-Jul-20 10:50 34.158393 -118.286097 110 4954ft 125kts
11-Jul-20 10:51 34.145835 -118.245450 108 4955ft 133kts
11-Jul-20 10:52 34.134490 -118.202892 107 4954ft 132kts
11-Jul-20 10:53 34.123045 -118.159930 107 4954ft 134kts
11-Jul-20 10:54 34.111582 -118.117030 107 4954ft 134kts
11-Jul-20 10:55 34.101032 -118.073842 105 4954ft 134kts
11-Jul-20 10:56 34.090724 -118.030356 105 4954ft 134kts
11-Jul-20 10:57 34.080440 -117.987114 105 4954ft 134kts
11-Jul-20 10:58 34.070093 -117.943750 105 4954ft 134kts
11-Jul-20 10:59 34.059742 -117.900506 105 4954ft 134kts
11-Jul-20 11:00 34.050797 -117.856732 101 4954ft 134kts
11-Jul-20 11:01 34.043061 -117.813635 102 4759ft 128kts
11-Jul-20 11:02 34.035485 -117.771671 102 4257ft 128kts
11-Jul-20 11:03 34.027891 -117.729792 102 3757ft 128kts
11-Jul-20 11:04 34.022065 -117.688525 92 3477ft 116kts
11-Jul-20 11:05 34.020754 -117.650492 92 3480ft 113kts
11-Jul-20 11:06 34.019395 -117.611606 92 3481ft 119kts
11-Jul-20 11:07 34.018118 -117.571373 88 3480ft 120kts
11-Jul-20 11:07 34.018817 -117.537672 88 3480ft 120kts
11-Jul-20 11:09 34.022593 -117.490764 82 3480ft 120kts
11-Jul-20 11:09 34.028258 -117.457914 71 3480ft 120kts
11-Jul-20 11:10 34.039851 -117.419948 69 3253ft 115kts
11-Jul-20 11:11 34.050006 -117.386985 69 3262ft 98kts
11-Jul-20 11:13 34.060829 -117.351693 70 3149ft 104kts
11-Jul-20 11:13 34.068962 -117.321179 72 2597ft 120kts
11-Jul-20 11:14 34.080217 -117.285527 67 1825ft 89kts
11-Jul-20 11:15 34.087552 -117.261284 69 1340ft 67kts
11-Jul-20 11:16 34.092378 -117.244560 68 1094ft 26kts
11-Jul-20 11:17 34.093837 -117.241332 43 1100ft 0kts
11-Jul-20 11:18 34.097139 -117.238499 34 1109ft 13kts
11-Jul-20 11:19 34.100886 -117.239565 327 1109ft 16kts
11-Jul-20 11:20 34.104870 -117.242599 328 1104ft 14kts

Navigation Log

Ident Type
Flight plan parsing failed, navigation log unavailable